If you wish to contribute or participate in the discussions about articles you are invited to join SKYbrary as a registered user

 Actions

Atka Airport

From SKYbrary Wiki

PAAK
Airport
ICAO: PAAK – IATA: AKB
Summary
Name Atka Airport
Region North America
Territory Alaska US.gif
Location , Alaska
Serving Atka
Elevation 17.374 m
57 ft
57 ft17.374 m
Type small airport
Coordinates 52° 13' 13.0008", -174° 12' 23.0004"
Close to Bering Sea
Runways
Designator Length Width Surface ROPS
16/34 1372 m4,501.312 ft 30 m98.425 ft ASPH-E /


METAR
Observation PAAK 191556Z AUTO 29024G28KT 6SM BR SCT005 OVC011 05/04 A2993 RMK AO2 PK WND 29028/1554 RAB27E52 SLP137 P0002 T00500039
Station Atka, Atka Airport
Date/Time 19 June 2018 15:56:00
Wind direction 290°
Wind speed 24 kts
Lowest cloud amount scattered clouds
Temperature 5°C
Dew point 3.9°C
Humidity 92%
QNH hPa
Weather condition mist